Time;durP1;ratioP1;P1;durP2;ratioP2;P2;SDS_P1;SDS_P2;PMS_P1;PMS_P2;Temp;Humidity;BMP_temperature;BMP_pressure;BME280_temperature;BME280_humidity;BME280_pressure;Samples;Min_cycle;Max_cycle;Signal;HPM_P1;HPM_P2
2022/09/02 00:01:22;;;;;;;6.90;2.38;;;18.50;99.90;;;;;;5052278;28;20173;-56
2022/09/02 00:03:48;;;;;;;6.97;2.95;;;18.50;99.90;;;;;;5052589;28;20192;-55
2022/09/02 00:06:14;;;;;;;6.03;2.28;;;18.50;99.90;;;;;;5050731;28;20640;-55
2022/09/02 00:08:40;;;;;;;7.00;2.50;;;18.50;99.90;;;;;;5051978;28;20168;-54
2022/09/02 00:11:08;;;;;;;6.55;3.08;;;18.60;99.90;;;;;;5051860;28;20217;-56
2022/09/02 00:13:36;;;;;;;10.23;3.20;;;18.50;99.90;;;;;;5052061;28;20643;-55
2022/09/02 00:16:02;;;;;;;7.78;3.03;;;18.60;99.90;;;;;;5051951;28;20173;-54
2022/09/02 00:18:29;;;;;;;5.40;2.90;;;18.60;99.90;;;;;;5051674;28;20177;-56
2022/09/02 00:20:54;;;;;;;7.13;2.85;;;18.60;99.90;;;;;;5051840;28;20252;-56
2022/09/02 00:23:20;;;;;;;7.95;2.75;;;18.60;99.90;;;;;;5051696;28;20256;-56
2022/09/02 00:25:46;;;;;;;9.60;2.78;;;18.60;99.90;;;;;;5051788;28;20173;-55
2022/09/02 00:28:13;;;;;;;7.30;2.70;;;18.60;99.90;;;;;;5051861;28;20166;-55
2022/09/02 00:30:40;;;;;;;6.07;2.90;;;18.60;99.90;;;;;;5051633;28;20226;-55
2022/09/02 00:33:06;;;;;;;10.35;3.38;;;18.60;99.90;;;;;;5051619;28;20251;-55
2022/09/02 00:35:32;;;;;;;7.63;3.40;;;18.60;99.90;;;;;;5050877;28;20595;-55
2022/09/02 00:37:58;;;;;;;12.20;2.88;;;18.50;99.90;;;;;;5050353;28;20169;-55
2022/09/02 00:40:25;;;;;;;8.05;3.20;;;18.50;99.90;;;;;;5051353;28;20174;-56
2022/09/02 00:42:51;;;;;;;8.95;3.40;;;18.40;99.90;;;;;;5051401;28;20169;-55
2022/09/02 00:45:18;;;;;;;9.77;3.33;;;18.40;99.90;;;;;;5051545;28;20264;-55
2022/09/02 00:47:44;;;;;;;8.05;3.13;;;18.40;99.90;;;;;;5051264;28;20165;-55
2022/09/02 00:50:14;;;;;;;9.02;3.60;;;18.30;99.90;;;;;;5051365;28;20204;-55
2022/09/02 00:52:44;;;;;;;5.38;3.42;;;18.30;99.90;;;;;;5051164;28;20196;-55
2022/09/02 00:55:20;;;;;;;7.90;3.83;;;18.30;99.90;;;;;;5051125;28;20166;-54
2022/09/02 00:57:50;;;;;;;8.90;4.00;;;18.20;99.90;;;;;;5051206;28;20227;-55
2022/09/02 01:00:19;;;;;;;12.13;3.85;;;18.20;99.90;;;;;;5051083;28;20169;-54
2022/09/02 01:02:49;;;;;;;6.18;4.03;;;18.20;99.90;;;;;;5051123;28;20177;-54
2022/09/02 01:05:17;;;;;;;10.10;4.43;;;18.20;99.90;;;;;;5051043;28;20568;-55
2022/09/02 01:07:43;;;;;;;11.63;4.35;;;18.20;99.90;;;;;;5051079;28;20256;-55
2022/09/02 01:10:14;;;;;;;9.75;4.38;;;18.20;99.90;;;;;;5050874;28;20210;-56
2022/09/02 01:12:41;;;;;;;7.28;3.88;;;18.20;99.90;;;;;;5050892;28;20165;-55
2022/09/02 01:15:09;;;;;;;7.35;3.50;;;18.20;99.90;;;;;;5051115;28;20169;-56
2022/09/02 01:17:38;;;;;;;11.38;4.40;;;18.20;99.90;;;;;;5050972;28;20169;-55
2022/09/02 01:20:10;;;;;;;9.05;4.03;;;18.20;99.90;;;;;;5050979;28;20177;-55
2022/09/02 01:22:37;;;;;;;8.27;4.00;;;18.20;99.90;;;;;;5050867;28;20187;-55
2022/09/02 01:25:07;;;;;;;10.88;4.30;;;18.20;99.90;;;;;;5050997;28;20185;-55
2022/09/02 01:27:34;;;;;;;10.15;4.40;;;18.10;99.90;;;;;;5050690;28;20165;-56
2022/09/02 01:30:00;;;;;;;15.52;5.53;;;18.10;99.90;;;;;;5049400;28;20169;-55
2022/09/02 01:32:28;;;;;;;6.30;4.10;;;18.10;99.90;;;;;;5050641;28;20200;-55
2022/09/02 01:34:54;;;;;;;9.63;4.15;;;18.10;99.90;;;;;;5050600;28;20611;-54
2022/09/02 01:37:20;;;;;;;11.00;5.53;;;18.00;99.90;;;;;;5050715;28;20172;-55
2022/09/02 01:39:47;;;;;;;9.10;4.90;;;18.00;99.90;;;;;;5050386;28;20213;-55
2022/09/02 01:42:13;;;;;;;12.40;5.00;;;18.00;99.90;;;;;;5050748;28;20201;-55
2022/09/02 01:44:42;;;;;;;10.15;4.20;;;18.00;99.90;;;;;;5050443;28;20613;-54
2022/09/02 01:47:20;;;;;;;7.68;4.22;;;18.00;99.90;;;;;;5049416;28;20561;-54
2022/09/02 01:49:46;;;;;;;7.85;3.65;;;18.10;99.90;;;;;;5054489;28;20267;-55
2022/09/02 01:52:13;;;;;;;7.47;3.38;;;18.10;99.90;;;;;;5054489;28;20216;-54
2022/09/02 01:54:39;;;;;;;9.18;4.40;;;18.10;99.90;;;;;;5054477;28;20177;-55
2022/09/02 01:57:05;;;;;;;16.45;5.38;;;18.00;99.90;;;;;;5054447;28;20183;-55
2022/09/02 01:59:30;;;;;;;13.68;4.47;;;18.10;99.90;;;;;;5054440;28;20162;-55
2022/09/02 02:01:56;;;;;;;11.75;5.20;;;18.10;99.90;;;;;;5054378;28;20169;-54
2022/09/02 02:04:23;;;;;;;14.73;5.20;;;18.20;99.90;;;;;;5054369;28;20602;-55
2022/09/02 02:06:50;;;;;;;11.13;4.40;;;18.20;99.90;;;;;;5054553;28;20188;-55
2022/09/02 02:09:16;;;;;;;16.35;5.93;;;18.20;99.90;;;;;;5054203;28;20188;-55
2022/09/02 02:11:43;;;;;;;11.95;5.55;;;18.30;99.90;;;;;;5054301;28;20280;-54
2022/09/02 02:14:09;;;;;;;11.90;5.85;;;18.30;99.90;;;;;;5054031;28;20589;-54
2022/09/02 02:16:35;;;;;;;11.55;5.88;;;18.30;99.90;;;;;;5054018;28;20174;-55
2022/09/02 02:19:02;;;;;;;10.30;5.05;;;18.40;99.90;;;;;;5054227;28;20158;-54
2022/09/02 02:21:28;;;;;;;10.05;5.00;;;18.30;99.90;;;;;;5054143;28;20181;-55
2022/09/02 02:23:54;;;;;;;9.82;4.97;;;18.40;99.90;;;;;;5053909;28;20180;-55
2022/09/02 02:26:19;;;;;;;10.80;5.00;;;18.40;99.90;;;;;;5053837;28;20512;-55
2022/09/02 02:28:45;;;;;;;12.52;5.07;;;18.40;99.90;;;;;;5053749;28;20177;-53
2022/09/02 02:31:11;;;;;;;7.80;4.82;;;18.40;99.90;;;;;;5053769;28;20208;-54
2022/09/02 02:33:37;;;;;;;10.68;5.38;;;18.40;99.90;;;;;;5053963;28;20166;-54
2022/09/02 02:36:05;;;;;;;19.33;5.55;;;18.30;99.90;;;;;;5054143;28;20177;-55
2022/09/02 02:38:33;;;;;;;13.45;5.40;;;18.20;99.90;;;;;;5053526;28;20217;-54
2022/09/02 02:40:59;;;;;;;12.38;5.32;;;18.20;99.90;;;;;;5053677;28;20195;-54
2022/09/02 02:43:25;;;;;;;9.52;5.13;;;18.20;99.90;;;;;;5053619;28;20605;-54
2022/09/02 02:45:51;;;;;;;10.18;6.15;;;18.10;99.90;;;;;;5053507;28;20185;-55
2022/09/02 02:48:17;;;;;;;12.75;4.97;;;18.00;99.90;;;;;;5053658;28;20265;-55
2022/09/02 02:50:43;;;;;;;7.90;4.38;;;18.00;99.90;;;;;;5053422;28;20296;-55
2022/09/02 02:53:11;;;;;;;7.70;4.55;;;17.90;99.90;;;;;;5053336;28;20625;-54
2022/09/02 02:55:37;;;;;;;12.30;4.97;;;17.90;99.90;;;;;;5053470;28;20246;-54
2022/09/02 02:58:03;;;;;;;8.85;4.50;;;17.90;99.90;;;;;;5053260;28;20177;-55
2022/09/02 03:00:31;;;;;;;9.52;4.65;;;17.80;99.90;;;;;;5052906;28;20169;-55
2022/09/02 03:03:06;;;;;;;10.15;4.88;;;17.80;99.90;;;;;;5053313;28;20161;-54
2022/09/02 03:05:34;;;;;;;11.05;4.15;;;17.80;99.90;;;;;;5053148;28;20299;-54
2022/09/02 03:08:00;;;;;;;11.18;3.72;;;17.80;99.90;;;;;;5053171;28;20169;-54
2022/09/02 03:10:26;;;;;;;9.50;4.05;;;17.70;99.90;;;;;;5053157;28;20209;-54
2022/09/02 03:12:52;;;;;;;14.70;4.97;;;17.70;99.90;;;;;;5053112;28;20199;-55
2022/09/02 03:15:19;;;;;;;7.88;4.20;;;17.60;99.90;;;;;;5052959;28;20173;-54
2022/09/02 03:17:46;;;;;;;12.40;4.53;;;17.60;99.90;;;;;;5053054;28;20201;-55
2022/09/02 03:20:14;;;;;;;8.95;4.15;;;17.60;99.90;;;;;;5053088;28;20181;-54
2022/09/02 03:22:44;;;;;;;13.55;4.43;;;17.60;99.90;;;;;;5053030;28;20173;-54
2022/09/02 03:25:11;;;;;;;8.13;4.20;;;17.50;99.90;;;;;;5052873;28;20724;-54
2022/09/02 03:27:39;;;;;;;9.57;3.83;;;17.50;99.90;;;;;;5052800;28;20248;-55
2022/09/02 03:30:08;;;;;;;9.27;4.10;;;17.40;99.90;;;;;;5052718;28;20185;-54
2022/09/02 03:32:33;;;;;;;12.60;4.10;;;17.40;99.90;;;;;;5052798;28;20182;-54
2022/09/02 03:35:06;;;;;;;7.25;4.43;;;17.40;99.90;;;;;;5051431;28;20272;-54
2022/09/02 03:37:32;;;;;;;10.88;4.20;;;17.40;99.90;;;;;;5052418;28;20185;-54
2022/09/02 03:40:00;;;;;;;11.05;4.10;;;17.30;99.90;;;;;;5052388;28;20213;-55
2022/09/02 03:42:25;;;;;;;11.07;3.92;;;17.30;99.90;;;;;;5052460;28;20625;-54
2022/09/02 03:44:52;;;;;;;9.48;3.95;;;17.20;99.90;;;;;;5052426;28;20256;-54
2022/09/02 03:47:19;;;;;;;12.63;4.40;;;17.20;99.90;;;;;;5052491;28;20184;-54
2022/09/02 03:49:45;;;;;;;12.10;4.13;;;17.20;99.90;;;;;;5052310;28;20174;-55
2022/09/02 03:52:10;;;;;;;8.55;3.97;;;17.10;99.90;;;;;;5052319;28;20208;-55
2022/09/02 03:54:36;;;;;;;9.73;3.75;;;17.10;99.90;;;;;;5052215;28;20175;-54
2022/09/02 03:57:02;;;;;;;7.80;3.95;;;17.10;99.90;;;;;;5052495;28;20174;-55
2022/09/02 03:59:27;;;;;;;10.77;4.80;;;17.00;99.90;;;;;;5052137;28;20657;-54
2022/09/02 04:01:54;;;;;;;12.30;3.92;;;17.00;99.90;;;;;;5052136;28;20176;-54
2022/09/02 04:04:20;;;;;;;13.00;4.40;;;17.00;99.90;;;;;;5052155;28;20264;-54
2022/09/02 04:06:45;;;;;;;6.15;3.42;;;17.00;99.90;;;;;;5052078;28;20294;-54
2022/09/02 04:09:11;;;;;;;11.13;3.88;;;17.00;99.90;;;;;;5051993;28;20180;-54
2022/09/02 04:11:41;;;;;;;10.75;3.92;;;17.00;99.90;;;;;;5051359;28;20701;-55
2022/09/02 04:14:08;;;;;;;13.10;3.92;;;17.00;99.90;;;;;;5051938;28;20231;-56
2022/09/02 04:16:34;;;;;;;8.13;3.90;;;16.90;99.90;;;;;;5051641;28;20198;-54
2022/09/02 04:19:01;;;;;;;14.20;4.10;;;16.90;99.90;;;;;;5051616;28;20527;-54
2022/09/02 04:21:28;;;;;;;10.88;4.18;;;16.90;99.90;;;;;;5051693;28;20180;-54
2022/09/02 04:23:55;;;;;;;14.57;3.97;;;16.90;99.90;;;;;;5051829;28;20219;-54
2022/09/02 04:26:22;;;;;;;12.98;4.10;;;16.80;99.90;;;;;;5051655;28;20271;-55
2022/09/02 04:28:48;;;;;;;9.70;4.10;;;16.80;99.90;;;;;;5051703;28;20195;-54
2022/09/02 04:31:16;;;;;;;15.95;4.30;;;16.80;99.90;;;;;;5051665;28;20374;-55
2022/09/02 04:33:42;;;;;;;10.13;3.70;;;16.80;99.90;;;;;;5051538;28;20219;-54
2022/09/02 04:36:10;;;;;;;10.43;4.32;;;16.90;99.90;;;;;;5051476;28;20223;-54
2022/09/02 04:38:36;;;;;;;19.30;4.60;;;16.90;99.90;;;;;;5051535;28;20224;-54
2022/09/02 04:41:08;;;;;;;12.38;4.28;;;16.90;99.90;;;;;;5051422;28;20165;-54
2022/09/02 04:43:34;;;;;;;9.95;3.78;;;16.90;99.90;;;;;;5051365;28;20173;-55
2022/09/02 04:46:00;;;;;;;18.05;4.30;;;16.90;99.90;;;;;;5051356;28;20173;-55
2022/09/02 04:48:26;;;;;;;11.35;3.53;;;17.00;99.90;;;;;;5051329;28;20170;-54
2022/09/02 04:50:52;;;;;;;10.65;3.53;;;17.00;99.90;;;;;;5051129;28;20655;-54
2022/09/02 04:53:17;;;;;;;11.27;3.72;;;17.00;99.90;;;;;;5051458;28;20699;-54
2022/09/02 04:55:43;;;;;;;11.15;3.67;;;17.00;99.90;;;;;;5051187;28;20653;-54
2022/09/02 04:58:10;;;;;;;12.00;4.07;;;17.00;99.90;;;;;;5051240;28;20176;-55
2022/09/02 05:00:39;;;;;;;9.15;3.85;;;17.00;99.90;;;;;;5051145;28;20248;-54
2022/09/02 05:03:05;;;;;;;6.90;3.40;;;16.90;99.90;;;;;;5049655;28;20264;-53
2022/09/02 05:05:32;;;;;;;15.25;4.10;;;16.80;99.90;;;;;;5050965;28;20226;-53
2022/09/02 05:07:57;;;;;;;8.15;3.78;;;16.80;99.90;;;;;;5051224;28;20208;-54
2022/09/02 05:10:23;;;;;;;10.77;3.72;;;16.80;99.90;;;;;;5050776;28;20678;-55
2022/09/02 05:12:49;;;;;;;6.80;3.60;;;16.70;99.90;;;;;;5049460;28;20215;-55
2022/09/02 05:15:15;;;;;;;9.70;3.95;;;16.70;99.90;;;;;;5050882;28;20516;-55
2022/09/02 05:17:41;;;;;;;8.25;3.58;;;16.60;99.90;;;;;;5050734;28;20176;-54
2022/09/02 05:20:08;;;;;;;8.82;3.85;;;16.50;99.90;;;;;;5050737;28;20178;-54
2022/09/02 05:22:35;;;;;;;11.88;3.72;;;16.50;99.90;;;;;;5050812;28;20173;-55
2022/09/02 05:25:02;;;;;;;10.40;3.85;;;16.50;99.90;;;;;;5050800;28;20169;-53
2022/09/02 05:27:28;;;;;;;11.25;3.60;;;16.50;99.90;;;;;;5050784;28;20254;-54
2022/09/02 05:29:55;;;;;;;12.90;4.00;;;16.50;99.90;;;;;;5050769;28;20219;-55
2022/09/02 05:32:22;;;;;;;15.38;4.22;;;16.40;99.90;;;;;;5050569;28;20209;-55
2022/09/02 05:34:48;;;;;;;11.57;4.00;;;16.40;99.90;;;;;;5050858;28;20177;-56
2022/09/02 05:37:14;;;;;;;14.32;3.70;;;16.40;99.90;;;;;;5050685;28;20173;-53
2022/09/02 05:39:40;;;;;;;9.82;3.70;;;16.40;99.90;;;;;;5050287;28;20217;-55
2022/09/02 05:42:06;;;;;;;9.65;4.63;;;16.40;99.90;;;;;;5050458;28;20549;-55
2022/09/02 05:44:32;;;;;;;8.85;3.80;;;16.40;99.90;;;;;;5050633;28;20282;-55
2022/09/02 05:46:57;;;;;;;8.88;3.67;;;16.40;99.90;;;;;;5050473;28;20675;-54
2022/09/02 05:49:23;;;;;;;12.30;4.00;;;16.40;99.90;;;;;;5050467;28;20239;-55
2022/09/02 05:51:52;;;;;;;9.93;4.40;;;16.40;99.90;;;;;;5050307;28;20217;-55
2022/09/02 05:54:30;;;;;;;10.93;3.92;;;16.50;99.90;;;;;;5050500;28;20212;-55
2022/09/02 05:56:58;;;;;;;12.65;4.47;;;16.50;99.90;;;;;;5050497;28;20189;-55
2022/09/02 05:59:26;;;;;;;11.82;4.53;;;16.50;99.90;;;;;;5050412;28;20197;-54
2022/09/02 06:01:53;;;;;;;10.60;3.65;;;16.50;99.90;;;;;;5050653;28;20181;-54
2022/09/02 06:04:21;;;;;;;6.90;3.70;;;16.50;99.90;;;;;;5050370;28;20176;-54
2022/09/02 06:06:47;;;;;;;12.35;3.88;;;16.50;99.90;;;;;;5050372;28;20185;-55
2022/09/02 06:09:15;;;;;;;8.45;3.83;;;16.50;99.90;;;;;;5050354;28;20161;-56
2022/09/02 06:11:48;;;;;;;8.43;4.13;;;16.60;99.90;;;;;;5050308;28;20209;-55
2022/09/02 06:14:15;;;;;;;11.18;4.28;;;16.60;99.90;;;;;;5050220;28;20264;-55
2022/09/02 06:16:42;;;;;;;7.88;4.10;;;16.60;99.90;;;;;;5050129;28;20181;-55
2022/09/02 06:19:08;;;;;;;11.95;4.45;;;16.70;99.90;;;;;;5050135;28;20655;-55
2022/09/02 06:21:35;;;;;;;10.02;4.15;;;16.70;99.90;;;;;;5050364;28;20206;-55
2022/09/02 06:24:05;;;;;;;10.25;4.22;;;16.70;99.90;;;;;;5050168;28;20192;-54
2022/09/02 06:26:30;;;;;;;9.40;4.18;;;16.70;99.90;;;;;;5050107;28;20200;-55
2022/09/02 06:28:56;;;;;;;14.80;4.28;;;16.80;99.90;;;;;;5050059;28;20629;-55
2022/09/02 06:31:22;;;;;;;13.40;4.40;;;16.80;99.90;;;;;;5050103;28;20213;-56
2022/09/02 06:33:53;;;;;;;13.30;4.90;;;16.80;99.90;;;;;;5050658;28;20502;-55
2022/09/02 06:36:20;;;;;;;18.00;4.35;;;16.80;99.90;;;;;;5053754;28;20178;-54
2022/09/02 06:38:48;;;;;;;9.60;4.00;;;16.80;99.90;;;;;;5053566;28;20217;-56
2022/09/02 06:41:18;;;;;;;11.13;4.40;;;16.90;99.90;;;;;;5053637;28;20176;-55
2022/09/02 06:43:44;;;;;;;11.48;4.22;;;17.00;99.90;;;;;;5053926;28;20173;-56
2022/09/02 06:46:21;;;;;;;7.60;4.00;;;17.00;99.90;;;;;;5053554;28;20192;-56
2022/09/02 06:48:48;;;;;;;9.80;4.18;;;17.00;99.90;;;;;;5053546;28;20238;-55
2022/09/02 06:51:37;;;;;;;11.88;4.35;;;17.00;99.90;;;;;;5053402;28;20225;-56
2022/09/02 06:54:05;;;;;;;10.80;3.80;;;17.10;99.90;;;;;;5053473;28;20158;-56
2022/09/02 06:56:32;;;;;;;12.05;4.00;;;17.10;99.90;;;;;;5053291;28;20549;-56
2022/09/02 06:58:57;;;;;;;14.77;3.97;;;17.10;99.90;;;;;;5053242;28;20252;-56
2022/09/02 07:01:27;;;;;;;11.45;4.82;;;17.10;99.90;;;;;;5053272;28;20264;-56
2022/09/02 07:06:43;;;;;;;14.63;4.15;;;17.20;99.90;;;;;;5053491;28;20185;-57
2022/09/02 07:09:10;;;;;;;9.30;4.45;;;17.20;99.90;;;;;;5053138;28;20555;-56
2022/09/02 07:11:37;;;;;;;12.77;5.28;;;17.30;99.90;;;;;;5053130;28;20729;-54
2022/09/02 07:14:03;;;;;;;10.75;3.78;;;17.40;99.90;;;;;;5053047;28;20174;-55
2022/09/02 07:16:32;;;;;;;14.27;4.30;;;17.60;99.90;;;;;;5052945;28;20199;-54
2022/09/02 07:19:00;;;;;;;9.05;3.88;;;17.80;99.90;;;;;;5051542;28;20173;-56
2022/09/02 07:21:27;;;;;;;12.75;3.90;;;17.90;99.90;;;;;;5052900;28;20196;-56
2022/09/02 07:23:54;;;;;;;10.85;3.95;;;18.10;99.90;;;;;;5052763;28;20211;-57
2022/09/02 07:26:20;;;;;;;15.25;4.55;;;18.20;99.90;;;;;;5053039;28;20599;-56
2022/09/02 07:28:46;;;;;;;10.93;3.42;;;18.30;99.90;;;;;;5052906;28;20161;-56
2022/09/02 07:31:15;;;;;;;11.80;3.78;;;18.40;99.90;;;;;;5052458;28;20672;-57
2022/09/02 07:33:41;;;;;;;11.18;3.17;;;18.50;99.90;;;;;;5052623;28;20169;-55
2022/09/02 07:36:09;;;;;;;11.30;3.67;;;18.60;99.90;;;;;;5052718;28;20172;-56
2022/09/02 07:38:35;;;;;;;14.90;3.80;;;18.80;99.90;;;;;;5052505;28;20292;-56
2022/09/02 07:41:02;;;;;;;8.07;3.75;;;18.90;99.90;;;;;;5052674;28;20177;-57
2022/09/02 07:43:28;;;;;;;18.27;3.78;;;19.00;99.90;;;;;;5052391;28;20173;-56
2022/09/02 07:45:54;;;;;;;9.77;3.30;;;19.10;99.90;;;;;;5052447;28;20248;-61
2022/09/02 07:48:24;;;;;;;16.20;3.72;;;19.20;99.90;;;;;;5052651;28;20157;-57
2022/09/02 07:50:50;;;;;;;12.00;3.38;;;19.30;99.90;;;;;;5052446;28;20254;-56
2022/09/02 07:53:17;;;;;;;12.70;4.00;;;19.40;99.90;;;;;;5052406;28;20161;-53
2022/09/02 07:55:44;;;;;;;9.27;3.25;;;19.60;99.90;;;;;;5052402;28;20175;-54
2022/09/02 07:58:11;;;;;;;13.35;3.25;;;19.60;99.90;;;;;;5052174;28;20177;-55
2022/09/02 08:00:38;;;;;;;20.63;3.90;;;19.70;99.90;;;;;;5052101;28;20248;-54
2022/09/02 08:03:05;;;;;;;18.88;3.50;;;19.70;99.90;;;;;;5052351;28;20191;-54
2022/09/02 08:05:32;;;;;;;13.93;3.40;;;19.60;99.90;;;;;;5050761;28;20235;-54
2022/09/02 08:07:59;;;;;;;16.48;3.30;;;19.60;99.90;;;;;;5051963;28;20177;-54
2022/09/02 08:10:28;;;;;;;12.95;3.35;;;19.60;99.90;;;;;;5051875;28;20226;-54
2022/09/02 08:12:54;;;;;;;14.52;3.13;;;19.50;99.90;;;;;;5051751;28;20262;-55
2022/09/02 08:15:21;;;;;;;15.93;3.80;;;19.40;99.90;;;;;;5051852;28;20169;-56
2022/09/02 08:17:47;;;;;;;13.52;3.03;;;19.50;99.90;;;;;;5050372;28;20308;-54
2022/09/02 08:20:15;;;;;;;11.15;3.40;;;19.50;99.90;;;;;;5050569;28;20170;-55
2022/09/02 08:22:41;;;;;;;16.33;3.55;;;19.50;99.90;;;;;;5051583;28;20671;-56
2022/09/02 08:25:07;;;;;;;16.05;3.15;;;19.50;99.90;;;;;;5051710;28;20172;-55
2022/09/02 08:27:33;;;;;;;17.33;3.95;;;19.60;99.90;;;;;;5051445;28;20215;-55
2022/09/02 08:30:00;;;;;;;13.65;3.50;;;19.60;99.90;;;;;;5051627;28;20256;-57
2022/09/02 08:32:27;;;;;;;16.42;3.72;;;19.70;99.90;;;;;;5051367;28;20275;-56
2022/09/02 08:34:53;;;;;;;13.65;3.22;;;19.80;99.90;;;;;;5051586;28;20235;-55
2022/09/02 08:37:18;;;;;;;17.65;3.58;;;19.90;99.90;;;;;;5051423;28;20620;-54
2022/09/02 08:39:46;;;;;;;15.20;3.10;;;20.00;99.90;;;;;;5051260;28;20275;-55
2022/09/02 08:42:21;;;;;;;11.52;3.20;;;20.40;99.90;;;;;;5051438;28;20703;-55
2022/09/02 08:44:54;;;;;;;16.95;2.88;;;20.70;99.90;;;;;;5051365;28;20608;-56
2022/09/02 08:47:28;;;;;;;14.23;3.13;;;21.70;99.90;;;;;;5051253;28;20639;-56
2022/09/02 08:49:58;;;;;;;15.65;3.20;;;22.40;99.90;;;;;;5051769;28;20173;-56
2022/09/02 08:52:26;;;;;;;12.57;2.75;;;23.30;99.90;;;;;;5051214;28;20197;-56
2022/09/02 08:54:57;;;;;;;11.73;3.00;;;24.60;99.90;;;;;;5051237;28;20636;-56
2022/09/02 08:57:25;;;;;;;14.77;2.88;;;25.10;99.90;;;;;;5050890;28;20169;-56
2022/09/02 08:59:57;;;;;;;7.13;2.50;;;25.00;99.90;;;;;;5051037;28;20203;-56
2022/09/02 09:02:55;;;;;;;12.45;3.05;;;24.80;99.90;;;;;;5051121;28;20252;-56
2022/09/02 09:05:26;;;;;;;10.20;2.95;;;24.10;99.90;;;;;;5051265;28;20197;-56
2022/09/02 09:08:10;;;;;;;8.40;2.75;;;23.40;99.90;;;;;;5051025;28;20169;-55
2022/09/02 09:11:00;;;;;;;11.15;3.00;;;22.60;99.90;;;;;;5050905;28;20205;-56
2022/09/02 09:13:31;;;;;;;13.30;3.00;;;22.30;99.90;;;;;;5050916;28;20173;-56
2022/09/02 09:16:27;;;;;;;9.35;2.65;;;22.20;99.90;;;;;;5050832;28;20655;-56
2022/09/02 09:19:15;;;;;;;11.13;3.15;;;22.30;99.90;;;;;;5050855;28;20243;-56
2022/09/02 09:21:42;;;;;;;13.13;2.80;;;22.70;99.90;;;;;;5050811;28;20259;-56
2022/09/02 09:24:20;;;;;;;10.18;3.13;;;23.00;99.90;;;;;;5050935;28;20158;-56
2022/09/02 09:26:48;;;;;;;9.63;2.72;;;23.10;99.90;;;;;;5050678;28;20173;-58
2022/09/02 09:29:14;;;;;;;11.27;3.22;;;23.30;99.90;;;;;;5050753;28;20208;-57
2022/09/02 09:31:41;;;;;;;12.43;2.90;;;23.70;99.90;;;;;;5050644;28;20589;-56
2022/09/02 09:34:10;;;;;;;9.90;2.75;;;24.20;99.90;;;;;;5050616;28;20180;-56
2022/09/02 09:36:38;;;;;;;18.08;3.42;;;24.80;99.90;;;;;;5050634;28;20221;-57
2022/09/02 09:39:16;;;;;;;14.45;3.20;;;25.10;99.90;;;;;;5050760;28;20225;-57
2022/09/02 09:41:42;;;;;;;16.08;3.50;;;25.30;99.90;;;;;;5050752;28;20165;-57
2022/09/02 09:44:08;;;;;;;18.88;3.22;;;25.50;99.90;;;;;;5050785;28;20177;-57
2022/09/02 09:46:34;;;;;;;10.45;3.20;;;25.80;99.90;;;;;;5050496;28;20528;-56
2022/09/02 09:48:59;;;;;;;10.15;2.88;;;25.80;99.90;;;;;;5050657;28;20669;-56
2022/09/02 09:51:25;;;;;;;14.93;3.30;;;25.90;99.90;;;;;;5050649;28;20220;-58
2022/09/02 09:53:51;;;;;;;12.32;2.53;;;26.30;99.90;;;;;;5050632;28;20707;-56
2022/09/02 09:56:19;;;;;;;11.50;2.95;;;26.70;99.90;;;;;;5050644;28;20184;-57
2022/09/02 09:58:47;;;;;;;8.32;2.53;;;27.00;99.90;;;;;;5050477;28;20172;-57
2022/09/02 10:01:33;;;;;;;8.93;2.63;;;28.00;99.90;;;;;;5050479;28;20169;-57
2022/09/02 10:04:03;;;;;;;9.00;2.85;;;28.90;99.90;;;;;;5050562;28;20157;-57
2022/09/02 10:06:29;;;;;;;8.60;2.88;;;30.10;99.90;;;;;;5049230;28;20177;-56
2022/09/02 10:09:14;;;;;;;8.48;3.08;;;30.30;99.90;;;;;;5051288;28;20189;-56
2022/09/02 10:11:57;;;;;;;10.57;2.67;;;30.90;99.90;;;;;;5054372;28;20205;-58
2022/09/02 10:14:32;;;;;;;13.38;2.55;;;31.80;99.90;;;;;;5054364;28;20719;-57
2022/09/02 10:17:30;;;;;;;7.45;2.50;;;32.50;99.90;;;;;;5054306;28;20717;-58
2022/09/02 10:20:22;;;;;;;9.80;2.92;;;33.00;99.90;;;;;;5046964;28;20552;-58
2022/09/02 10:23:21;;;;;;;14.40;3.50;;;32.90;99.90;;;;;;5054355;28;20189;-58
2022/09/02 10:26:12;;;;;;;12.65;2.72;;;33.60;99.90;;;;;;5054242;28;20786;-59
2022/09/02 10:28:58;;;;;;;11.48;2.95;;;34.00;99.90;;;;;;5054320;28;20185;-58
2022/09/02 10:31:52;;;;;;;8.98;3.40;;;34.20;99.90;;;;;;5053891;28;20201;-56
2022/09/02 10:34:29;;;;;;;12.63;2.95;;;34.80;99.90;;;;;;5053974;28;20173;-58
2022/09/02 10:37:14;;;;;;;11.45;2.78;;;35.50;99.90;;;;;;5053971;28;20176;-58
2022/09/02 10:40:04;;;;;;;10.45;2.75;;;35.50;99.90;;;;;;5053981;28;20212;-58
2022/09/02 10:42:48;;;;;;;14.02;3.00;;;35.50;99.90;;;;;;5053804;28;20176;-58
2022/09/02 10:45:23;;;;;;;7.93;2.63;;;36.10;99.90;;;;;;5052475;28;20212;-58
2022/09/02 10:48:45;;;;;;;9.30;2.67;;;36.00;99.90;;;;;;5053929;28;20234;-57
2022/09/02 10:51:18;;;;;;;9.32;3.03;;;35.00;99.90;;;;;;4992021;28;20215;-57
2022/09/02 10:54:08;;;;;;;7.68;2.30;;;32.00;99.90;;;;;;4992191;28;20191;-57
2022/09/02 10:57:11;;;;;;;12.13;2.58;;;32.10;99.90;;;;;;5041422;28;20225;-57
2022/09/02 10:59:54;;;;;;;13.00;2.70;;;32.20;99.90;;;;;;5043892;28;20262;-57
2022/09/02 11:03:10;;;;;;;9.35;2.35;;;32.70;99.90;;;;;;5053477;28;20678;-57
2022/09/02 11:05:57;;;;;;;13.60;3.35;;;32.10;99.90;;;;;;5027659;28;20193;-57
2022/09/02 11:08:34;;;;;;;7.88;2.30;;;30.90;99.90;;;;;;5053333;28;20195;-57
2022/09/02 11:11:02;;;;;;;10.23;2.40;;;31.90;99.90;;;;;;5053232;28;20210;-58
2022/09/02 11:13:42;;;;;;;9.52;2.72;;;33.40;99.90;;;;;;5053328;28;20311;-58
2022/09/02 11:16:20;;;;;;;8.30;2.40;;;32.90;99.90;;;;;;5053204;28;20181;-57
2022/09/02 11:18:57;;;;;;;7.57;2.50;;;32.20;99.90;;;;;;5053145;28;20172;-57
2022/09/02 11:21:37;;;;;;;15.02;2.70;;;31.90;99.90;;;;;;5052853;28;20173;-57
2022/09/02 11:24:14;;;;;;;11.02;2.58;;;29.80;99.90;;;;;;5053078;28;20165;-58
2022/09/02 11:27:03;;;;;;;4.95;2.60;;;29.30;99.90;;;;;;5053073;28;20643;-57
2022/09/02 11:29:49;;;;;;;8.05;2.63;;;29.00;99.90;;;;;;5013726;28;20200;-57
2022/09/02 11:32:39;;;;;;;9.15;3.10;;;28.60;99.90;;;;;;5052837;28;20213;-57
2022/09/02 11:35:23;;;;;;;6.55;2.50;;;28.40;99.90;;;;;;5052823;28;20169;-57
2022/09/02 11:37:56;;;;;;;7.57;2.55;;;27.90;99.90;;;;;;5052786;28;20640;-57
2022/09/02 11:40:54;;;;;;;9.48;2.80;;;27.30;99.90;;;;;;5052564;28;20304;-58
2022/09/02 11:43:50;;;;;;;8.65;3.13;;;26.90;99.90;;;;;;5019059;28;20223;-58
2022/09/02 11:46:40;;;;;;;8.10;3.13;;;26.50;99.90;;;;;;5052873;28;20542;-58
2022/09/02 11:49:43;;;;;;;5.53;3.40;;;26.20;99.90;;;;;;5052748;28;20172;-57
2022/09/02 11:52:17;;;;;;;6.10;2.83;;;26.20;99.90;;;;;;5052450;28;20261;-57
2022/09/02 11:54:47;;;;;;;10.52;2.90;;;26.60;99.90;;;;;;5052451;28;20211;-56
2022/09/02 11:57:22;;;;;;;5.85;2.65;;;26.60;99.90;;;;;;5051093;28;20173;-56
2022/09/02 11:59:50;;;;;;;12.50;3.38;;;26.50;99.90;;;;;;5052273;28;20192;-55
2022/09/02 12:02:36;;;;;;;9.48;3.38;;;26.10;99.90;;;;;;5052317;28;20169;-57
2022/09/02 12:05:30;;;;;;;7.18;2.90;;;26.40;99.90;;;;;;5052162;28;20234;-57
2022/09/02 12:08:05;;;;;;;8.25;3.30;;;27.20;99.90;;;;;;5052150;28;20181;-59
2022/09/02 12:10:41;;;;;;;11.30;2.63;;;29.20;99.90;;;;;;5052159;28;20169;-57
2022/09/02 12:13:11;;;;;;;4.22;3.08;;;31.40;99.90;;;;;;5052244;28;20180;-58
2022/09/02 12:15:39;;;;;;;8.63;2.78;;;33.10;99.90;;;;;;5052139;28;20636;-57
2022/09/02 12:18:27;;;;;;;6.82;2.53;;;35.30;99.90;;;;;;5052083;28;20231;-58
2022/09/02 12:20:58;;;;;;;11.30;2.72;;;35.40;99.90;;;;;;5051916;28;20203;-59
2022/09/02 12:23:55;;;;;;;7.07;2.67;;;35.10;99.90;;;;;;5051920;28;20287;-59
2022/09/02 12:26:28;;;;;;;5.43;2.47;;;32.50;99.90;;;;;;5051974;28;20212;-58
2022/09/02 12:29:19;;;;;;;10.65;2.88;;;30.40;99.90;;;;;;5051885;28;20179;-58
2022/09/02 12:31:47;;;;;;;6.53;2.28;;;30.30;99.90;;;;;;5050806;28;20671;-57
2022/09/02 12:34:27;;;;;;;17.27;3.10;;;30.60;99.90;;;;;;5051603;28;20169;-57
2022/09/02 12:37:01;;;;;;;7.60;2.75;;;31.20;99.90;;;;;;5051563;28;20200;-58
2022/09/02 12:39:26;;;;;;;6.53;3.00;;;32.30;99.90;;;;;;5051634;28;20246;-58
2022/09/02 12:41:58;;;;;;;9.75;2.55;;;32.30;99.90;;;;;;5051552;28;20602;-57
2022/09/02 12:44:38;;;;;;;10.63;2.88;;;31.90;99.90;;;;;;5051555;28;20173;-58
2022/09/02 12:47:25;;;;;;;11.57;2.42;;;32.40;99.90;;;;;;5051532;28;20177;-56
2022/09/02 12:50:34;;;;;;;8.48;2.58;;;33.60;99.90;;;;;;5051384;28;20183;-58
2022/09/02 12:53:31;;;;;;;9.15;2.75;;;34.30;99.90;;;;;;4989635;28;20186;-58
2022/09/02 12:56:20;;;;;;;10.38;3.03;;;34.10;99.90;;;;;;4989697;28;20175;-58
2022/09/02 12:58:54;;;;;;;9.75;2.75;;;31.70;99.90;;;;;;5042390;28;20185;-57
2022/09/02 13:01:43;;;;;;;9.02;3.20;;;31.30;99.90;;;;;;5051225;28;20201;-58
2022/09/02 13:04:45;;;;;;;11.30;3.03;;;31.10;99.90;;;;;;5050833;28;20189;-58